sensor_id;sensor_type;location;lat;lon;timestamp;pressure;altitude;pressure_sealevel;temperature;humidity
62703;BME280;66022;50.448;18.122;2023-05-15T00:01:59;98591.41;;;12.60;99.83
62703;BME280;66022;50.448;18.122;2023-05-15T00:06:11;98584.41;;;12.55;99.80
62703;BME280;66022;50.448;18.122;2023-05-15T00:10:23;98578.69;;;12.52;100.00
62703;BME280;66022;50.448;18.122;2023-05-15T00:14:35;98569.73;;;12.48;100.00
62703;BME280;66022;50.448;18.122;2023-05-15T00:18:47;98562.05;;;12.44;100.00
62703;BME280;66022;50.448;18.122;2023-05-15T00:22:59;98557.22;;;12.43;99.78
62703;BME280;66022;50.448;18.122;2023-05-15T00:27:11;98550.23;;;12.41;100.00
62703;BME280;66022;50.448;18.122;2023-05-15T00:31:23;98545.11;;;12.40;99.29
62703;BME280;66022;50.448;18.122;2023-05-15T00:35:35;98540.28;;;12.39;100.00
62703;BME280;66022;50.448;18.122;2023-05-15T00:39:47;98534.05;;;12.39;100.00
62703;BME280;66022;50.448;18.122;2023-05-15T00:43:59;98525.75;;;12.38;99.81
62703;BME280;66022;50.448;18.122;2023-05-15T00:48:11;98518.94;;;12.38;100.00
62703;BME280;66022;50.448;18.122;2023-05-15T00:52:23;98512.94;;;12.38;98.99
62703;BME280;66022;50.448;18.122;2023-05-15T00:56:35;98507.68;;;12.37;100.00
62703;BME280;66022;50.448;18.122;2023-05-15T01:00:47;98501.36;;;12.39;98.93
62703;BME280;66022;50.448;18.122;2023-05-15T01:04:59;98496.61;;;12.40;100.00
62703;BME280;66022;50.448;18.122;2023-05-15T01:09:11;98491.19;;;12.40;98.73
62703;BME280;66022;50.448;18.122;2023-05-15T01:13:23;98485.82;;;12.42;98.81
62703;BME280;66022;50.448;18.122;2023-05-15T01:17:35;98479.47;;;12.43;100.00
62703;BME280;66022;50.448;18.122;2023-05-15T01:26:06;98469.25;;;12.47;98.45
62703;BME280;66022;50.448;18.122;2023-05-15T01:42:51;98462.38;;;12.54;96.65
62703;BME280;66022;50.448;18.122;2023-05-15T01:47:00;98459.83;;;12.55;100.00
62703;BME280;66022;50.448;18.122;2023-05-15T01:51:11;98457.87;;;12.57;95.08
62703;BME280;66022;50.448;18.122;2023-05-15T01:55:23;98457.05;;;12.59;95.55
62703;BME280;66022;50.448;18.122;2023-05-15T01:59:35;98455.88;;;12.60;96.85
62703;BME280;66022;50.448;18.122;2023-05-15T02:03:47;98454.53;;;12.62;94.44
62703;BME280;66022;50.448;18.122;2023-05-15T02:07:59;98453.69;;;12.64;97.48
62703;BME280;66022;50.448;18.122;2023-05-15T02:12:11;98453.23;;;12.67;95.12
62703;BME280;66022;50.448;18.122;2023-05-15T02:16:23;98452.46;;;12.67;100.00
62703;BME280;66022;50.448;18.122;2023-05-15T02:20:35;98452.34;;;12.70;94.41
62703;BME280;66022;50.448;18.122;2023-05-15T02:24:47;98451.06;;;12.72;95.89
62703;BME280;66022;50.448;18.122;2023-05-15T02:33:14;98440.01;;;12.74;94.17
62703;BME280;66022;50.448;18.122;2023-05-15T02:37:24;98433.24;;;12.75;100.00
62703;BME280;66022;50.448;18.122;2023-05-15T02:41:35;98425.32;;;12.75;95.04
62703;BME280;66022;50.448;18.122;2023-05-15T02:45:47;98417.10;;;12.74;94.68
62703;BME280;66022;50.448;18.122;2023-05-15T02:49:59;98409.64;;;12.73;97.87
62703;BME280;66022;50.448;18.122;2023-05-15T02:54:11;98400.42;;;12.72;96.04
62703;BME280;66022;50.448;18.122;2023-05-15T02:58:23;98394.55;;;12.69;96.97
62703;BME280;66022;50.448;18.122;2023-05-15T03:02:35;98390.37;;;12.69;94.90
62703;BME280;66022;50.448;18.122;2023-05-15T03:06:47;98384.02;;;12.66;100.00
62703;BME280;66022;50.448;18.122;2023-05-15T03:10:59;98377.08;;;12.64;96.40
62703;BME280;66022;50.448;18.122;2023-05-15T03:15:11;98372.55;;;12.62;95.68
62703;BME280;66022;50.448;18.122;2023-05-15T03:19:23;98365.97;;;12.60;99.11
62703;BME280;66022;50.448;18.122;2023-05-15T03:23:35;98360.14;;;12.59;95.92
62703;BME280;66022;50.448;18.122;2023-05-15T03:27:47;98357.26;;;12.57;100.00
62703;BME280;66022;50.448;18.122;2023-05-15T03:31:59;98352.11;;;12.56;97.18
62703;BME280;66022;50.448;18.122;2023-05-15T03:36:11;98348.05;;;12.54;96.94
62703;BME280;66022;50.448;18.122;2023-05-15T03:40:23;98344.86;;;12.54;96.24
62703;BME280;66022;50.448;18.122;2023-05-15T03:44:35;98342.83;;;12.56;94.78
62703;BME280;66022;50.448;18.122;2023-05-15T03:48:47;98339.67;;;12.58;95.29
62703;BME280;66022;50.448;18.122;2023-05-15T03:52:59;98337.73;;;12.64;94.36
62703;BME280;66022;50.448;18.122;2023-05-15T03:57:11;98336.36;;;12.68;100.00
62703;BME280;66022;50.448;18.122;2023-05-15T04:01:23;98335.50;;;12.74;94.62
62703;BME280;66022;50.448;18.122;2023-05-15T04:05:35;98334.47;;;12.78;93.93
62703;BME280;66022;50.448;18.122;2023-05-15T04:09:47;98334.41;;;12.81;95.33
62703;BME280;66022;50.448;18.122;2023-05-15T04:13:59;98333.84;;;12.85;94.21
62703;BME280;66022;50.448;18.122;2023-05-15T04:18:11;98333.23;;;12.87;97.82
62703;BME280;66022;50.448;18.122;2023-05-15T04:22:23;98331.92;;;12.88;95.75
62703;BME280;66022;50.448;18.122;2023-05-15T04:26:35;98330.56;;;12.86;100.00
62703;BME280;66022;50.448;18.122;2023-05-15T04:30:47;98329.42;;;12.88;95.55
62703;BME280;66022;50.448;18.122;2023-05-15T04:34:59;98328.08;;;12.89;94.92
62703;BME280;66022;50.448;18.122;2023-05-15T04:39:11;98327.73;;;12.91;95.88
62703;BME280;66022;50.448;18.122;2023-05-15T04:43:23;98325.08;;;12.94;95.05
62703;BME280;66022;50.448;18.122;2023-05-15T04:47:35;98322.96;;;12.96;99.40
62703;BME280;66022;50.448;18.122;2023-05-15T04:51:47;98320.70;;;12.99;94.70
62703;BME280;66022;50.448;18.122;2023-05-15T04:55:59;98319.12;;;13.02;94.63
62703;BME280;66022;50.448;18.122;2023-05-15T05:00:12;98316.89;;;13.06;95.39
62703;BME280;66022;50.448;18.122;2023-05-15T05:04:23;98314.26;;;13.10;93.86
62703;BME280;66022;50.448;18.122;2023-05-15T05:08:35;98311.60;;;13.13;95.75
62703;BME280;66022;50.448;18.122;2023-05-15T05:12:47;98308.86;;;13.18;94.56
62703;BME280;66022;50.448;18.122;2023-05-15T05:16:59;98304.11;;;13.20;100.00
62703;BME280;66022;50.448;18.122;2023-05-15T05:21:11;98300.03;;;13.22;94.86
62703;BME280;66022;50.448;18.122;2023-05-15T05:25:23;98294.93;;;13.25;94.55
62703;BME280;66022;50.448;18.122;2023-05-15T05:29:35;98292.02;;;13.27;95.45
62703;BME280;66022;50.448;18.122;2023-05-15T05:33:47;98288.07;;;13.31;94.05
62703;BME280;66022;50.448;18.122;2023-05-15T05:37:59;98285.24;;;13.36;96.63
62703;BME280;66022;50.448;18.122;2023-05-15T05:42:11;98284.45;;;13.41;93.70
62703;BME280;66022;50.448;18.122;2023-05-15T05:46:23;98283.26;;;13.45;100.00
62703;BME280;66022;50.448;18.122;2023-05-15T05:50:35;98282.11;;;13.49;94.24
62703;BME280;66022;50.448;18.122;2023-05-15T05:54:48;98280.49;;;13.53;93.54
62703;BME280;66022;50.448;18.122;2023-05-15T05:59:00;98277.95;;;13.54;94.49
62703;BME280;66022;50.448;18.122;2023-05-15T06:03:12;98274.73;;;13.55;93.24
62703;BME280;66022;50.448;18.122;2023-05-15T06:07:24;98272.81;;;13.55;98.65
62703;BME280;66022;50.448;18.122;2023-05-15T06:11:35;98271.39;;;13.54;93.85
62703;BME280;66022;50.448;18.122;2023-05-15T06:15:47;98269.78;;;13.53;94.62
62703;BME280;66022;50.448;18.122;2023-05-15T06:19:59;98267.42;;;13.51;94.43
62703;BME280;66022;50.448;18.122;2023-05-15T06:24:13;98266.35;;;13.51;93.54
62703;BME280;66022;50.448;18.122;2023-05-15T06:28:24;98265.80;;;13.50;94.92
62703;BME280;66022;50.448;18.122;2023-05-15T06:32:35;98265.94;;;13.50;94.26
62703;BME280;66022;50.448;18.122;2023-05-15T06:36:48;98265.09;;;13.49;100.00
62703;BME280;66022;50.448;18.122;2023-05-15T06:40:59;98264.22;;;13.49;95.93
62703;BME280;66022;50.448;18.122;2023-05-15T06:45:12;98263.47;;;13.49;94.06
62703;BME280;66022;50.448;18.122;2023-05-15T06:49:26;98261.52;;;13.50;95.47
62703;BME280;66022;50.448;18.122;2023-05-15T06:53:36;98260.74;;;13.51;94.78
62703;BME280;66022;50.448;18.122;2023-05-15T06:57:48;98259.66;;;13.51;96.69
62703;BME280;66022;50.448;18.122;2023-05-15T07:06:12;98257.42;;;13.52;93.09
62703;BME280;66022;50.448;18.122;2023-05-15T07:10:24;98256.45;;;13.53;97.61
62703;BME280;66022;50.448;18.122;2023-05-15T07:14:36;98255.19;;;13.53;94.43
62703;BME280;66022;50.448;18.122;2023-05-15T07:18:48;98253.01;;;13.51;95.98
62703;BME280;66022;50.448;18.122;2023-05-15T07:23:00;98251.76;;;13.50;95.65
62703;BME280;66022;50.448;18.122;2023-05-15T07:27:12;98249.33;;;13.48;100.00
62703;BME280;66022;50.448;18.122;2023-05-15T07:31:23;98247.78;;;13.49;96.56
62703;BME280;66022;50.448;18.122;2023-05-15T07:35:36;98246.53;;;13.50;95.32
62703;BME280;66022;50.448;18.122;2023-05-15T07:39:48;98244.56;;;13.53;97.84
62703;BME280;66022;50.448;18.122;2023-05-15T07:44:00;98242.50;;;13.55;95.57
62703;BME280;66022;50.448;18.122;2023-05-15T07:48:15;98239.51;;;13.59;96.73
62703;BME280;66022;50.448;18.122;2023-05-15T07:52:24;98237.08;;;13.64;93.79
62703;BME280;66022;50.448;18.122;2023-05-15T07:56:36;98235.52;;;13.66;100.00
62703;BME280;66022;50.448;18.122;2023-05-15T08:00:48;98235.16;;;13.71;95.50
62703;BME280;66022;50.448;18.122;2023-05-15T08:05:00;98235.30;;;13.77;94.49
62703;BME280;66022;50.448;18.122;2023-05-15T08:09:12;98235.60;;;13.81;95.79
62703;BME280;66022;50.448;18.122;2023-05-15T08:13:24;98236.25;;;13.85;93.90
62703;BME280;66022;50.448;18.122;2023-05-15T08:17:36;98237.66;;;13.89;99.75
62703;BME280;66022;50.448;18.122;2023-05-15T08:21:48;98238.31;;;13.96;93.95
62703;BME280;66022;50.448;18.122;2023-05-15T08:25:59;98240.44;;;14.02;93.79
62703;BME280;66022;50.448;18.122;2023-05-15T08:30:12;98240.99;;;14.09;94.35
62703;BME280;66022;50.448;18.122;2023-05-15T08:34:24;98242.11;;;14.18;94.19
62703;BME280;66022;50.448;18.122;2023-05-15T08:38:36;98242.02;;;14.24;94.83
62703;BME280;66022;50.448;18.122;2023-05-15T08:42:48;98242.18;;;14.31;93.55
62703;BME280;66022;50.448;18.122;2023-05-15T08:47:00;98241.90;;;14.33;100.00
62703;BME280;66022;50.448;18.122;2023-05-15T08:51:12;98242.02;;;14.35;94.24
62703;BME280;66022;50.448;18.122;2023-05-15T08:55:24;98243.13;;;14.37;94.08
62703;BME280;66022;50.448;18.122;2023-05-15T08:59:36;98245.04;;;14.37;96.59
62703;BME280;66022;50.448;18.122;2023-05-15T09:03:48;98246.13;;;14.37;95.10
62703;BME280;66022;50.448;18.122;2023-05-15T09:08:00;98246.91;;;14.38;97.22
62703;BME280;66022;50.448;18.122;2023-05-15T09:12:13;98248.69;;;14.41;94.75
62703;BME280;66022;50.448;18.122;2023-05-15T09:16:24;98249.55;;;14.42;100.00
62703;BME280;66022;50.448;18.122;2023-05-15T09:20:36;98252.04;;;14.44;95.20
62703;BME280;66022;50.448;18.122;2023-05-15T09:24:48;98255.89;;;14.45;94.99
62703;BME280;66022;50.448;18.122;2023-05-15T09:29:03;98256.91;;;14.45;97.19
62703;BME280;66022;50.448;18.122;2023-05-15T09:33:12;98258.23;;;14.48;96.21
62703;BME280;66022;50.448;18.122;2023-05-15T09:37:27;98258.91;;;14.50;97.38
62703;BME280;66022;50.448;18.122;2023-05-15T09:41:36;98257.39;;;14.54;92.86
62703;BME280;66022;50.448;18.122;2023-05-15T09:45:48;98255.02;;;14.58;92.64
62703;BME280;66022;50.448;18.122;2023-05-15T09:50:00;98253.03;;;14.64;92.15
62703;BME280;66022;50.448;18.122;2023-05-15T09:54:18;98251.76;;;14.74;91.88
62703;BME280;66022;50.448;18.122;2023-05-15T09:58:24;98250.89;;;14.92;92.50
62703;BME280;66022;50.448;18.122;2023-05-15T10:02:38;98250.10;;;15.13;88.47
62703;BME280;66022;50.448;18.122;2023-05-15T10:06:48;98250.70;;;15.35;96.59
62703;BME280;66022;50.448;18.122;2023-05-15T10:11:00;98251.61;;;15.63;87.04
62703;BME280;66022;50.448;18.122;2023-05-15T10:15:12;98252.48;;;15.94;86.20
62703;BME280;66022;50.448;18.122;2023-05-15T10:19:24;98251.42;;;16.23;84.88
62703;BME280;66022;50.448;18.122;2023-05-15T10:23:36;98248.82;;;16.52;83.70
62703;BME280;66022;50.448;18.122;2023-05-15T10:27:48;98248.08;;;16.77;82.77
62703;BME280;66022;50.448;18.122;2023-05-15T10:32:00;98247.44;;;17.10;81.23
62703;BME280;66022;50.448;18.122;2023-05-15T10:36:12;98248.32;;;17.38;79.33
62703;BME280;66022;50.448;18.122;2023-05-15T10:40:24;98246.91;;;17.57;79.65
62703;BME280;66022;50.448;18.122;2023-05-15T10:44:36;98246.25;;;17.71;79.38
62703;BME280;66022;50.448;18.122;2023-05-15T10:48:48;98244.05;;;17.75;81.11
62703;BME280;66022;50.448;18.122;2023-05-15T10:53:00;98240.56;;;17.83;79.32
62703;BME280;66022;50.448;18.122;2023-05-15T10:57:13;98237.19;;;17.92;80.17
62703;BME280;66022;50.448;18.122;2023-05-15T11:01:30;98234.06;;;18.00;77.60
62703;BME280;66022;50.448;18.122;2023-05-15T11:06:17;98232.01;;;18.04;77.55
62703;BME280;66022;50.448;18.122;2023-05-15T11:09:48;98227.39;;;18.02;78.50
62703;BME280;66022;50.448;18.122;2023-05-15T11:18:12;98220.01;;;17.90;84.65
62703;BME280;66022;50.448;18.122;2023-05-15T11:22:28;98216.78;;;17.79;83.46
62703;BME280;66022;50.448;18.122;2023-05-15T11:26:39;98214.37;;;17.63;92.98
62703;BME280;66022;50.448;18.122;2023-05-15T11:30:49;98213.31;;;17.51;86.23
62703;BME280;66022;50.448;18.122;2023-05-15T11:34:59;98211.70;;;17.39;87.18
62703;BME280;66022;50.448;18.122;2023-05-15T11:39:12;98209.03;;;17.30;88.29
62703;BME280;66022;50.448;18.122;2023-05-15T11:43:24;98205.45;;;17.31;88.81
62703;BME280;66022;50.448;18.122;2023-05-15T11:47:36;98200.96;;;17.42;88.65
62703;BME280;66022;50.448;18.122;2023-05-15T11:51:48;98196.73;;;17.61;81.38
62703;BME280;66022;50.448;18.122;2023-05-15T11:56:00;98191.88;;;17.79;78.67
62703;BME280;66022;50.448;18.122;2023-05-15T12:00:12;98186.32;;;17.96;79.87
62703;BME280;66022;50.448;18.122;2023-05-15T12:04:24;98178.66;;;18.12;78.67
62703;BME280;66022;50.448;18.122;2023-05-15T12:08:36;98171.34;;;18.28;77.83
62703;BME280;66022;50.448;18.122;2023-05-15T12:12:48;98165.52;;;18.43;75.62
62703;BME280;66022;50.448;18.122;2023-05-15T12:17:00;98161.02;;;18.48;77.34
62703;BME280;66022;50.448;18.122;2023-05-15T12:21:12;98158.31;;;18.51;77.87
62703;BME280;66022;50.448;18.122;2023-05-15T12:25:24;98156.81;;;18.54;78.18
62703;BME280;66022;50.448;18.122;2023-05-15T12:29:36;98156.52;;;18.53;77.60
62703;BME280;66022;50.448;18.122;2023-05-15T12:33:48;98158.44;;;18.53;74.79
62703;BME280;66022;50.448;18.122;2023-05-15T12:38:03;98159.39;;;18.56;75.52
62703;BME280;66022;50.448;18.122;2023-05-15T12:42:13;98159.57;;;18.65;74.51
62703;BME280;66022;50.448;18.122;2023-05-15T12:46:24;98159.57;;;18.65;76.84
62703;BME280;66022;50.448;18.122;2023-05-15T12:50:37;98163.39;;;18.62;75.85
62703;BME280;66022;50.448;18.122;2023-05-15T12:54:49;98166.72;;;18.58;73.22
62703;BME280;66022;50.448;18.122;2023-05-15T12:59:00;98172.09;;;18.50;74.33
62703;BME280;66022;50.448;18.122;2023-05-15T13:03:12;98177.03;;;18.44;74.35
62703;BME280;66022;50.448;18.122;2023-05-15T13:07:25;98183.23;;;18.34;75.84
62703;BME280;66022;50.448;18.122;2023-05-15T13:11:36;98189.39;;;18.26;74.59
62703;BME280;66022;50.448;18.122;2023-05-15T13:15:48;98195.15;;;18.19;73.76
62703;BME280;66022;50.448;18.122;2023-05-15T13:20:00;98201.29;;;18.14;74.51
62703;BME280;66022;50.448;18.122;2023-05-15T13:24:12;98204.91;;;18.12;74.43
62703;BME280;66022;50.448;18.122;2023-05-15T13:28:24;98205.24;;;18.18;73.51
62703;BME280;66022;50.448;18.122;2023-05-15T13:32:36;98204.39;;;18.28;72.36
62703;BME280;66022;50.448;18.122;2023-05-15T13:36:48;98204.30;;;18.35;77.31
62703;BME280;66022;50.448;18.122;2023-05-15T13:41:00;98203.49;;;18.48;72.28
62703;BME280;66022;50.448;18.122;2023-05-15T13:45:12;98201.78;;;18.59;73.60
62703;BME280;66022;50.448;18.122;2023-05-15T13:49:24;98201.42;;;18.64;72.99
62703;BME280;66022;50.448;18.122;2023-05-15T13:53:36;98201.26;;;18.66;73.04
62703;BME280;66022;50.448;18.122;2023-05-15T13:57:48;98199.86;;;18.62;71.28
62703;BME280;66022;50.448;18.122;2023-05-15T14:02:00;98199.44;;;18.59;72.60
62703;BME280;66022;50.448;18.122;2023-05-15T14:06:12;98200.14;;;18.53;73.48
62703;BME280;66022;50.448;18.122;2023-05-15T14:10:24;98201.29;;;18.51;73.02
62703;BME280;66022;50.448;18.122;2023-05-15T14:14:36;98206.62;;;18.48;73.68
62703;BME280;66022;50.448;18.122;2023-05-15T14:18:48;98216.55;;;18.37;74.67
62703;BME280;66022;50.448;18.122;2023-05-15T14:23:00;98222.91;;;18.26;75.63
62703;BME280;66022;50.448;18.122;2023-05-15T14:27:12;98230.26;;;18.10;77.26
62703;BME280;66022;50.448;18.122;2023-05-15T14:31:24;98233.70;;;17.94;75.38
62703;BME280;66022;50.448;18.122;2023-05-15T14:35:36;98237.61;;;17.78;76.53
62703;BME280;66022;50.448;18.122;2023-05-15T14:39:48;98245.50;;;17.60;80.48
62703;BME280;66022;50.448;18.122;2023-05-15T14:44:00;98254.88;;;17.43;79.75
62703;BME280;66022;50.448;18.122;2023-05-15T14:48:12;98260.54;;;17.23;81.32
62703;BME280;66022;50.448;18.122;2023-05-15T14:52:24;98264.77;;;17.05;81.67
62703;BME280;66022;50.448;18.122;2023-05-15T14:56:36;98268.33;;;16.82;88.40
62703;BME280;66022;50.448;18.122;2023-05-15T15:00:47;98271.01;;;16.66;81.50
62703;BME280;66022;50.448;18.122;2023-05-15T15:05:00;98271.64;;;16.50;83.18
62703;BME280;66022;50.448;18.122;2023-05-15T15:09:12;98271.62;;;16.37;84.29
62703;BME280;66022;50.448;18.122;2023-05-15T15:13:24;98271.69;;;16.32;83.29
62703;BME280;66022;50.448;18.122;2023-05-15T15:17:36;98274.08;;;16.32;85.51
62703;BME280;66022;50.448;18.122;2023-05-15T15:21:48;98278.50;;;16.37;81.45
62703;BME280;66022;50.448;18.122;2023-05-15T15:26:00;98280.00;;;16.41;81.65
62703;BME280;66022;50.448;18.122;2023-05-15T15:30:12;98281.23;;;16.46;82.20
62703;BME280;66022;50.448;18.122;2023-05-15T15:34:24;98281.52;;;16.50;81.85
62703;BME280;66022;50.448;18.122;2023-05-15T15:38:36;98281.27;;;16.51;82.19
62703;BME280;66022;50.448;18.122;2023-05-15T15:42:48;98281.56;;;16.51;84.67
62703;BME280;66022;50.448;18.122;2023-05-15T15:47:00;98280.67;;;16.47;89.58
62703;BME280;66022;50.448;18.122;2023-05-15T15:51:12;98281.44;;;16.43;85.84
62703;BME280;66022;50.448;18.122;2023-05-15T15:55:24;98284.09;;;16.37;86.37
62703;BME280;66022;50.448;18.122;2023-05-15T15:59:36;98286.32;;;16.31;85.79
62703;BME280;66022;50.448;18.122;2023-05-15T16:03:48;98288.26;;;16.24;85.31
62703;BME280;66022;50.448;18.122;2023-05-15T16:08:00;98291.63;;;16.16;89.01
62703;BME280;66022;50.448;18.122;2023-05-15T16:12:12;98295.37;;;16.06;85.72
62703;BME280;66022;50.448;18.122;2023-05-15T16:16:24;98298.75;;;15.92;90.45
62703;BME280;66022;50.448;18.122;2023-05-15T16:20:36;98303.34;;;15.81;85.15
62703;BME280;66022;50.448;18.122;2023-05-15T16:24:51;98305.79;;;15.71;84.52
62703;BME280;66022;50.448;18.122;2023-05-15T16:29:00;98306.72;;;15.59;87.25
62703;BME280;66022;50.448;18.122;2023-05-15T16:33:13;98309.80;;;15.53;85.96
62703;BME280;66022;50.448;18.122;2023-05-15T16:37:24;98314.33;;;15.46;90.07
62703;BME280;66022;50.448;18.122;2023-05-15T16:41:36;98318.67;;;15.41;88.45
62703;BME280;66022;50.448;18.122;2023-05-15T16:45:48;98322.20;;;15.37;87.83
62703;BME280;66022;50.448;18.122;2023-05-15T16:50:00;98325.96;;;15.32;89.37
62703;BME280;66022;50.448;18.122;2023-05-15T16:54:15;98332.00;;;15.27;86.98
62703;BME280;66022;50.448;18.122;2023-05-15T16:58:24;98336.63;;;15.20;88.37
62703;BME280;66022;50.448;18.122;2023-05-15T17:02:36;98340.78;;;15.15;87.34
62703;BME280;66022;50.448;18.122;2023-05-15T17:06:48;98345.22;;;15.07;97.12
62703;BME280;66022;50.448;18.122;2023-05-15T17:11:00;98347.91;;;15.04;88.80
62703;BME280;66022;50.448;18.122;2023-05-15T17:15:12;98350.84;;;15.01;86.78
62703;BME280;66022;50.448;18.122;2023-05-15T17:19:24;98353.88;;;14.97;88.83
62703;BME280;66022;50.448;18.122;2023-05-15T17:23:36;98358.47;;;14.93;88.73
62703;BME280;66022;50.448;18.122;2023-05-15T17:27:48;98362.11;;;14.89;92.38
62703;BME280;66022;50.448;18.122;2023-05-15T17:32:00;98365.39;;;14.85;89.20
62703;BME280;66022;50.448;18.122;2023-05-15T17:36:12;98367.01;;;14.80;88.48
62703;BME280;66022;50.448;18.122;2023-05-15T17:40:24;98369.70;;;14.75;89.26
62703;BME280;66022;50.448;18.122;2023-05-15T17:44:36;98373.39;;;14.69;89.93
62703;BME280;66022;50.448;18.122;2023-05-15T17:48:48;98377.14;;;14.62;90.76
62703;BME280;66022;50.448;18.122;2023-05-15T17:53:00;98381.59;;;14.58;89.92
62703;BME280;66022;50.448;18.122;2023-05-15T17:57:12;98384.86;;;14.53;94.90
62703;BME280;66022;50.448;18.122;2023-05-15T18:01:24;98388.46;;;14.49;90.20
62703;BME280;66022;50.448;18.122;2023-05-15T18:05:36;98390.84;;;14.45;89.93
62703;BME280;66022;50.448;18.122;2023-05-15T18:09:48;98394.31;;;14.40;91.76
62703;BME280;66022;50.448;18.122;2023-05-15T18:14:00;98398.86;;;14.36;90.22
62703;BME280;66022;50.448;18.122;2023-05-15T18:18:12;98403.30;;;14.29;91.66
62703;BME280;66022;50.448;18.122;2023-05-15T18:22:24;98406.36;;;14.23;89.42
62703;BME280;66022;50.448;18.122;2023-05-15T18:26:36;98408.39;;;14.11;98.07
62703;BME280;66022;50.448;18.122;2023-05-15T18:30:48;98411.78;;;14.02;90.01
62703;BME280;66022;50.448;18.122;2023-05-15T18:35:00;98415.37;;;13.95;91.01
62703;BME280;66022;50.448;18.122;2023-05-15T18:39:12;98420.53;;;13.86;92.09
62703;BME280;66022;50.448;18.122;2023-05-15T18:43:24;98425.90;;;13.80;91.29
62703;BME280;66022;50.448;18.122;2023-05-15T18:47:36;98431.87;;;13.73;94.96
62703;BME280;66022;50.448;18.122;2023-05-15T18:51:48;98438.57;;;13.67;91.19
62703;BME280;66022;50.448;18.122;2023-05-15T18:56:00;98446.30;;;13.60;91.74
62703;BME280;66022;50.448;18.122;2023-05-15T19:00:12;98453.05;;;13.56;92.37
62703;BME280;66022;50.448;18.122;2023-05-15T19:04:24;98460.74;;;13.52;92.21
62703;BME280;66022;50.448;18.122;2023-05-15T19:08:39;98468.19;;;13.46;93.89
62703;BME280;66022;50.448;18.122;2023-05-15T19:12:48;98474.44;;;13.42;92.36
62703;BME280;66022;50.448;18.122;2023-05-15T19:17:00;98478.41;;;13.35;99.51
62703;BME280;66022;50.448;18.122;2023-05-15T19:21:12;98480.80;;;13.30;91.12
62703;BME280;66022;50.448;18.122;2023-05-15T19:25:24;98482.67;;;13.24;91.46
62703;BME280;66022;50.448;18.122;2023-05-15T19:29:36;98484.75;;;13.19;92.30
62703;BME280;66022;50.448;18.122;2023-05-15T19:33:48;98489.33;;;13.15;91.25
62703;BME280;66022;50.448;18.122;2023-05-15T19:38:00;98493.05;;;13.10;92.59
62703;BME280;66022;50.448;18.122;2023-05-15T19:42:12;98497.36;;;13.07;89.44
62703;BME280;66022;50.448;18.122;2023-05-15T19:46:24;98500.23;;;12.99;97.28
62703;BME280;66022;50.448;18.122;2023-05-15T19:50:43;98502.74;;;12.93;90.71
62703;BME280;66022;50.448;18.122;2023-05-15T19:54:51;98504.85;;;12.90;90.31
62703;BME280;66022;50.448;18.122;2023-05-15T19:59:00;98507.47;;;12.87;90.95
62703;BME280;66022;50.448;18.122;2023-05-15T20:03:13;98510.24;;;12.88;91.03
62703;BME280;66022;50.448;18.122;2023-05-15T20:07:24;98513.61;;;12.88;94.70
62703;BME280;66022;50.448;18.122;2023-05-15T20:11:36;98515.55;;;12.90;90.41
62703;BME280;66022;50.448;18.122;2023-05-15T20:20:00;98519.44;;;12.93;90.95
62703;BME280;66022;50.448;18.122;2023-05-15T20:24:12;98519.72;;;12.95;89.70
62703;BME280;66022;50.448;18.122;2023-05-15T20:28:24;98520.15;;;12.96;90.85
62703;BME280;66022;50.448;18.122;2023-05-15T20:32:36;98521.85;;;12.98;90.12
62703;BME280;66022;50.448;18.122;2023-05-15T20:36:48;98521.44;;;12.96;94.32
62703;BME280;66022;50.448;18.122;2023-05-15T20:41:00;98522.55;;;12.97;89.71
62703;BME280;66022;50.448;18.122;2023-05-15T20:45:12;98523.16;;;12.97;89.51
62703;BME280;66022;50.448;18.122;2023-05-15T20:49:24;98523.22;;;12.96;90.91
62703;BME280;66022;50.448;18.122;2023-05-15T20:53:36;98524.77;;;12.93;89.46
62703;BME280;66022;50.448;18.122;2023-05-15T20:57:48;98525.15;;;12.88;93.53
62703;BME280;66022;50.448;18.122;2023-05-15T21:02:00;98525.33;;;12.83;90.07
62703;BME280;66022;50.448;18.122;2023-05-15T21:06:12;98524.25;;;12.77;90.63
62703;BME280;66022;50.448;18.122;2023-05-15T21:10:24;98525.33;;;12.70;90.52
62703;BME280;66022;50.448;18.122;2023-05-15T21:14:36;98528.99;;;12.61;90.50
62703;BME280;66022;50.448;18.122;2023-05-15T21:18:48;98533.15;;;12.48;90.52
62703;BME280;66022;50.448;18.122;2023-05-15T21:23:01;98536.17;;;12.40;89.47
62703;BME280;66022;50.448;18.122;2023-05-15T21:27:12;98540.12;;;12.32;93.99
62703;BME280;66022;50.448;18.122;2023-05-15T21:31:24;98542.78;;;12.27;89.23
62703;BME280;66022;50.448;18.122;2023-05-15T21:35:36;98544.00;;;12.18;88.88
62703;BME280;66022;50.448;18.122;2023-05-15T21:39:48;98545.65;;;12.10;89.75
62703;BME280;66022;50.448;18.122;2023-05-15T21:44:00;98547.60;;;12.04;88.58
62703;BME280;66022;50.448;18.122;2023-05-15T21:48:12;98548.97;;;11.96;91.18
62703;BME280;66022;50.448;18.122;2023-05-15T21:52:24;98549.22;;;11.89;89.65
62703;BME280;66022;50.448;18.122;2023-05-15T21:56:36;98549.16;;;11.78;95.87
62703;BME280;66022;50.448;18.122;2023-05-15T22:00:48;98549.11;;;11.70;89.58
62703;BME280;66022;50.448;18.122;2023-05-15T22:05:00;98551.06;;;11.63;89.60
62703;BME280;66022;50.448;18.122;2023-05-15T22:09:12;98554.53;;;11.56;90.38
62703;BME280;66022;50.448;18.122;2023-05-15T22:13:24;98558.70;;;11.52;88.79
62703;BME280;66022;50.448;18.122;2023-05-15T22:17:36;98561.60;;;11.46;93.81
62703;BME280;66022;50.448;18.122;2023-05-15T22:21:48;98563.99;;;11.41;90.57
62703;BME280;66022;50.448;18.122;2023-05-15T22:26:00;98565.09;;;11.34;90.45
62703;BME280;66022;50.448;18.122;2023-05-15T22:30:12;98565.33;;;11.28;91.16